Time;durP1;ratioP1;P1;durP2;ratioP2;P2;SDS_P1;SDS_P2;PMS_P1;PMS_P2;Temp;Humidity;BMP_temperature;BMP_pressure;BME280_temperature;BME280_humidity;BME280_pressure;Samples;Min_cycle;Max_cycle;Signal;HPM_P1;HPM_P2
2022/09/10 00:02:18;;;;;;;22.92;2.97;;;;;;;-144.48;100.00;62369.91;4937436;29;20498;-77
2022/09/10 00:04:43;;;;;;;5.13;1.70;;;;;;;-144.48;100.00;62369.91;4931528;29;20031;-76
2022/09/10 00:07:08;;;;;;;5.15;1.70;;;;;;;-144.48;100.00;62369.91;4932534;29;20020;-75
2022/09/10 00:09:34;;;;;;;11.70;2.05;;;;;;;-144.48;100.00;62369.91;4930978;29;20058;-81
2022/09/10 00:11:59;;;;;;;8.98;1.77;;;;;;;-144.48;100.00;62369.91;4926439;29;20050;-76
2022/09/10 00:14:24;;;;;;;3.90;1.40;;;;;;;-144.48;100.00;62369.91;4927133;29;20053;-78
2022/09/10 00:16:50;;;;;;;7.13;1.90;;;;;;;-144.48;100.00;62369.91;4932461;29;20055;-79
2022/09/10 00:19:17;;;;;;;5.05;1.42;;;;;;;-144.48;100.00;62369.91;4932591;29;20028;-75
2022/09/10 00:21:45;;;;;;;6.53;1.95;;;;;;;-144.48;100.00;62369.91;4931565;29;20028;-76
2022/09/10 00:24:11;;;;;;;5.63;1.95;;;;;;;-144.48;100.00;62369.91;4924110;29;20035;-76
2022/09/10 00:26:38;;;;;;;9.07;1.70;;;;;;;-144.48;100.00;62369.91;4932130;29;20087;-78
2022/09/10 00:29:05;;;;;;;3.95;1.20;;;;;;;-144.48;100.00;62369.91;4932958;29;20027;-77
2022/09/10 00:31:32;;;;;;;3.28;1.38;;;;;;;-144.48;100.00;62369.91;4936394;29;20512;-81
2022/09/10 00:33:59;;;;;;;2.72;1.30;;;;;;;-144.48;100.00;62369.91;4937320;28;20082;-77
2022/09/10 00:36:26;;;;;;;4.20;1.60;;;;;;;-144.48;100.00;62369.91;4930215;29;20054;-78
2022/09/10 00:38:53;;;;;;;13.23;1.60;;;;;;;-144.48;100.00;62369.91;4930995;29;20103;-78
2022/09/10 00:41:21;;;;;;;7.13;1.70;;;;;;;-144.48;100.00;62369.91;4932209;29;20023;-74
2022/09/10 00:43:54;;;;;;;3.60;1.50;;;;;;;-144.48;100.00;62369.91;4932566;29;20034;-76
2022/09/10 00:46:43;;;;;;;4.82;1.50;;;;;;;-144.48;100.00;62369.91;4933292;29;20027;-76
2022/09/10 00:49:16;;;;;;;6.82;1.80;;;;;;;-144.48;100.00;62369.91;4932285;28;20035;-77
2022/09/10 00:51:44;;;;;;;3.38;1.50;;;;;;;-144.48;100.00;62369.91;4930993;29;20038;-77
2022/09/10 00:54:10;;;;;;;5.22;1.60;;;;;;;-144.48;100.00;62369.91;4932282;29;20377;-79
2022/09/10 00:56:36;;;;;;;3.92;1.50;;;;;;;-144.48;100.00;62369.91;4931677;29;20032;-78
2022/09/10 00:59:03;;;;;;;8.30;1.92;;;;;;;-144.48;100.00;62369.91;4932653;29;20541;-76
2022/09/10 01:01:29;;;;;;;6.38;1.58;;;;;;;-144.48;100.00;62369.91;4931555;29;20031;-76
2022/09/10 01:03:55;;;;;;;3.40;1.33;;;;;;;-144.48;100.00;62369.91;4932234;29;20545;-76
2022/09/10 01:06:20;;;;;;;5.55;1.50;;;;;;;-144.48;100.00;62369.91;4930385;29;20024;-76
2022/09/10 01:08:46;;;;;;;7.38;1.95;;;;;;;-144.48;100.00;62369.91;4930856;29;20023;-75
2022/09/10 01:11:36;;;;;;;4.30;1.30;;;;;;;-144.48;100.00;62369.91;4932295;29;20028;-75
2022/09/10 01:14:08;;;;;;;5.10;1.55;;;;;;;-144.48;100.00;62369.91;4922143;29;20034;-73
2022/09/10 01:16:54;;;;;;;6.32;1.98;;;;;;;-144.48;100.00;62369.91;4930606;29;20119;-74
2022/09/10 01:19:52;;;;;;;6.78;1.75;;;;;;;-144.48;100.00;62369.91;4931714;29;20024;-75
2022/09/10 01:22:31;;;;;;;6.22;1.80;;;;;;;-144.48;100.00;62369.91;4925237;29;20027;-74
2022/09/10 01:25:21;;;;;;;4.68;1.48;;;;;;;-144.48;100.00;62369.91;4930242;29;20055;-75
2022/09/10 01:27:51;;;;;;;7.38;1.65;;;;;;;-144.48;100.00;62369.91;4931293;29;20016;-75
2022/09/10 01:30:19;;;;;;;5.53;1.90;;;;;;;-144.48;100.00;62369.91;4931509;29;20126;-74
2022/09/10 01:32:50;;;;;;;9.30;1.90;;;;;;;-144.48;100.00;62369.91;4938342;29;20082;-72
2022/09/10 01:35:20;;;;;;;4.70;1.45;;;;;;;-144.48;100.00;62369.91;4922115;29;20482;-76
2022/09/10 01:37:53;;;;;;;5.18;1.70;;;;;;;-144.48;100.00;62369.91;4931350;29;20038;-77
2022/09/10 01:40:28;;;;;;;7.80;1.70;;;;;;;-144.48;100.00;62369.91;4931852;29;20174;-76
2022/09/10 01:42:59;;;;;;;9.50;1.90;;;;;;;-144.48;100.00;62369.91;4931071;29;20031;-75
2022/09/10 01:45:25;;;;;;;8.25;1.50;;;;;;;-144.48;100.00;62369.91;4930374;29;20131;-75
2022/09/10 01:48:05;;;;;;;4.82;1.38;;;;;;;-144.48;100.00;62369.91;4934001;29;20064;-76
2022/09/10 01:51:08;;;;;;;4.40;1.50;;;;;;;-144.48;100.00;62369.91;4930737;29;20121;-76
2022/09/10 01:54:04;;;;;;;6.60;1.23;;;;;;;-144.48;100.00;62369.91;4936454;28;20490;-78
2022/09/10 01:56:41;;;;;;;2.00;1.10;;;;;;;-144.48;100.00;62369.91;4931394;29;20394;-79
2022/09/10 01:59:28;;;;;;;6.32;1.20;;;;;;;-144.48;100.00;62369.91;4930261;29;20024;-78
2022/09/10 02:02:02;;;;;;;1.65;1.00;;;;;;;-144.48;100.00;62369.91;4931590;29;20162;-75
2022/09/10 02:04:29;;;;;;;4.85;1.13;;;;;;;-144.48;100.00;62369.91;4931225;29;20105;-78
2022/09/10 02:06:56;;;;;;;3.97;1.20;;;;;;;-144.48;100.00;62369.91;4931180;29;20024;-75
2022/09/10 02:09:21;;;;;;;8.80;1.33;;;;;;;-144.48;100.00;62369.91;4931520;29;20536;-76
2022/09/10 02:11:49;;;;;;;2.20;0.98;;;;;;;-144.48;100.00;62369.91;4928758;29;20028;-75
2022/09/10 02:14:15;;;;;;;6.63;1.20;;;;;;;-144.48;100.00;62369.91;4931664;29;20032;-75
2022/09/10 02:16:46;;;;;;;7.13;1.20;;;;;;;-144.48;100.00;62369.91;4928657;29;20083;-77
2022/09/10 02:19:14;;;;;;;5.68;1.60;;;;;;;-144.48;100.00;62369.91;4938035;28;20027;-78
2022/09/10 02:21:40;;;;;;;3.70;1.10;;;;;;;-144.48;100.00;62369.91;4926680;29;20039;-77
2022/09/10 02:24:08;;;;;;;6.05;1.42;;;;;;;-144.48;100.00;62369.91;4931526;29;20545;-76
2022/09/10 02:26:37;;;;;;;6.03;1.05;;;;;;;-144.48;100.00;62369.91;4930305;29;20039;-76
2022/09/10 02:29:03;;;;;;;7.18;1.60;;;;;;;-144.48;100.00;62369.91;4932315;29;20079;-77
2022/09/10 02:31:28;;;;;;;5.13;1.10;;;;;;;-144.48;100.00;62369.91;4934689;29;20028;-75
2022/09/10 02:33:54;;;;;;;2.97;1.20;;;;;;;-144.48;100.00;62369.91;4938346;29;20517;-77
2022/09/10 02:36:20;;;;;;;4.80;1.30;;;;;;;-144.48;100.00;62369.91;4932426;29;20050;-76
2022/09/10 02:38:45;;;;;;;7.28;1.48;;;;;;;-144.48;100.00;62369.91;4934663;29;20621;-73
2022/09/10 02:41:11;;;;;;;10.23;1.77;;;;;;;-144.48;100.00;62369.91;4934471;29;20064;-76
2022/09/10 02:43:36;;;;;;;12.05;2.38;;;;;;;-144.48;100.00;62369.91;4934395;29;20024;-75
2022/09/10 02:46:06;;;;;;;9.20;2.17;;;;;;;-144.48;100.00;62369.91;4934275;29;20032;-75
2022/09/10 02:48:32;;;;;;;4.28;1.58;;;;;;;-144.48;100.00;62369.91;4936121;29;20473;-76
2022/09/10 02:50:57;;;;;;;3.65;1.20;;;;;;;-144.48;100.00;62369.91;4933307;29;20517;-76
2022/09/10 02:53:22;;;;;;;5.20;1.42;;;;;;;-144.48;100.00;62369.91;4934772;29;20040;-76
2022/09/10 02:55:48;;;;;;;4.13;1.30;;;;;;;-144.48;100.00;62369.91;4933008;29;20442;-75
2022/09/10 02:58:15;;;;;;;3.45;1.65;;;;;;;-144.48;100.00;62369.91;4933645;29;20478;-76
2022/09/10 03:00:41;;;;;;;7.47;1.70;;;;;;;-144.48;100.00;62369.91;4934348;29;20047;-75
2022/09/10 03:03:07;;;;;;;4.72;1.30;;;;;;;-144.48;100.00;62369.91;4942959;29;20031;-76
2022/09/10 03:05:32;;;;;;;5.80;1.60;;;;;;;-144.48;100.00;62369.91;4933306;29;20433;-74
2022/09/10 03:07:59;;;;;;;5.00;1.42;;;;;;;-144.48;100.00;62369.91;4933668;29;20035;-75
2022/09/10 03:10:25;;;;;;;3.92;1.48;;;;;;;-144.48;100.00;62369.91;4933205;29;20071;-76
2022/09/10 03:12:51;;;;;;;5.43;1.40;;;;;;;-144.48;100.00;62369.91;4932829;29;20024;-74
2022/09/10 03:15:19;;;;;;;3.88;1.40;;;;;;;-144.48;100.00;62369.91;4931640;29;20534;-74
2022/09/10 03:17:45;;;;;;;6.82;1.42;;;;;;;-144.48;100.00;62369.91;4933960;29;20031;-75
2022/09/10 03:20:10;;;;;;;4.25;1.45;;;;;;;-144.48;100.00;62369.91;4931641;29;20032;-75
2022/09/10 03:22:37;;;;;;;9.27;1.90;;;;;;;-144.48;100.00;62369.91;4932984;29;20103;-76
2022/09/10 03:25:03;;;;;;;2.85;1.40;;;;;;;-144.48;100.00;62369.91;4933035;29;20035;-76
2022/09/10 03:27:29;;;;;;;3.78;1.45;;;;;;;-144.48;100.00;62369.91;4914653;29;20098;-76
2022/09/10 03:29:54;;;;;;;5.20;1.50;;;;;;;-144.48;100.00;62369.91;4930738;29;20051;-77
2022/09/10 03:32:20;;;;;;;6.88;1.88;;;;;;;-144.48;100.00;62369.91;4933619;29;20410;-75
2022/09/10 03:34:45;;;;;;;7.85;1.80;;;;;;;-144.48;100.00;62369.91;4933006;29;20406;-74
2022/09/10 03:37:10;;;;;;;5.10;1.75;;;;;;;-144.48;100.00;62369.91;4932844;29;20034;-76
2022/09/10 03:39:36;;;;;;;5.03;1.92;;;;;;;-144.48;100.00;62369.91;4933583;29;20746;-74
2022/09/10 03:42:03;;;;;;;16.63;3.75;;;;;;;-144.48;100.00;62369.91;4931884;29;20482;-74
2022/09/10 03:44:30;;;;;;;8.00;2.05;;;;;;;-144.48;100.00;62369.91;4933045;29;20020;-78
2022/09/10 03:46:56;;;;;;;9.27;2.13;;;;;;;-144.48;100.00;62369.91;4931285;29;20024;-75
2022/09/10 03:49:21;;;;;;;8.88;1.98;;;;;;;-144.48;100.00;62369.91;4942503;29;20078;-77
2022/09/10 03:51:47;;;;;;;6.78;2.10;;;;;;;-144.48;100.00;62369.91;4932281;29;20027;-77
2022/09/10 03:54:12;;;;;;;6.88;1.75;;;;;;;-144.48;100.00;62369.91;4933165;29;20522;-74
2022/09/10 03:56:38;;;;;;;6.13;1.33;;;;;;;-144.48;100.00;62369.91;4932002;29;20031;-74
2022/09/10 03:59:04;;;;;;;5.70;1.75;;;;;;;-144.48;100.00;62369.91;4932677;29;20537;-78
2022/09/10 04:01:29;;;;;;;4.05;1.25;;;;;;;-144.48;100.00;62369.91;4932587;29;20034;-76
2022/09/10 04:03:55;;;;;;;4.88;1.60;;;;;;;-144.48;100.00;62369.91;4932803;29;20227;-74
2022/09/10 04:06:21;;;;;;;11.85;1.80;;;;;;;-144.48;100.00;62369.91;4929210;29;20118;-76
2022/09/10 04:08:51;;;;;;;5.67;1.93;;;;;;;-144.48;100.00;62369.91;4896338;29;1068578;-75
2022/09/10 04:11:17;;;;;;;4.65;1.10;;;;;;;-144.48;100.00;62369.91;4969691;23;20043;-68
2022/09/10 04:13:43;;;;;;;4.35;1.27;;;;;;;-144.48;100.00;62369.91;4955954;28;20061;-67
2022/09/10 04:16:08;;;;;;;4.55;1.35;;;;;;;-144.48;100.00;62369.91;4956647;28;20027;-68
2022/09/10 04:18:34;;;;;;;8.05;1.63;;;;;;;-144.48;100.00;62369.91;4950282;28;20568;-68
2022/09/10 04:20:59;;;;;;;8.77;1.42;;;;;;;-144.48;100.00;62369.91;4951118;28;20027;-66
2022/09/10 04:23:25;;;;;;;3.88;1.33;;;;;;;-144.48;100.00;62369.91;4952415;28;20023;-67
2022/09/10 04:25:51;;;;;;;2.88;1.17;;;;;;;-144.48;100.00;62369.91;4951478;28;20031;-65
2022/09/10 04:28:16;;;;;;;13.30;1.80;;;;;;;-144.48;100.00;62369.91;4951007;28;20023;-66
2022/09/10 04:30:43;;;;;;;5.15;1.33;;;;;;;-144.48;100.00;62369.91;4951145;28;20110;-65
2022/09/10 04:33:10;;;;;;;5.50;1.50;;;;;;;-144.48;100.00;62369.91;4954779;28;20106;-67
2022/09/10 04:35:36;;;;;;;4.93;1.50;;;;;;;-144.48;100.00;62369.91;4955040;28;20035;-68
2022/09/10 04:38:01;;;;;;;3.53;1.33;;;;;;;-144.48;100.00;62369.91;4950977;28;20560;-66
2022/09/10 04:40:26;;;;;;;6.88;1.38;;;;;;;-144.48;100.00;62369.91;4951233;28;20125;-69
2022/09/10 04:42:52;;;;;;;6.45;1.50;;;;;;;-144.48;100.00;62369.91;4951325;28;20038;-68
2022/09/10 04:45:18;;;;;;;11.65;2.45;;;;;;;-144.48;100.00;62369.91;4949705;28;20087;-68
2022/09/10 04:47:45;;;;;;;3.63;1.30;;;;;;;-144.48;100.00;62369.91;4949781;28;20504;-68
2022/09/10 04:50:13;;;;;;;7.68;1.88;;;;;;;-144.48;100.00;62369.91;4950704;28;20085;-70
2022/09/10 04:52:38;;;;;;;13.80;2.80;;;;;;;-144.48;100.00;62369.91;4950934;28;20078;-70
2022/09/10 04:55:04;;;;;;;8.23;2.15;;;;;;;-144.48;100.00;62369.91;4951417;28;20023;-69
2022/09/10 04:57:29;;;;;;;12.27;3.03;;;;;;;-144.48;100.00;62369.91;4948493;28;20031;-66
2022/09/10 04:59:55;;;;;;;3.90;1.60;;;;;;;-144.48;100.00;62369.91;4950776;28;20058;-69
2022/09/10 05:02:21;;;;;;;4.88;1.60;;;;;;;-144.48;100.00;62369.91;4951298;28;20173;-68
2022/09/10 05:04:46;;;;;;;7.53;2.58;;;;;;;-144.48;100.00;62369.91;4950251;28;20114;-69
2022/09/10 05:07:12;;;;;;;6.35;1.60;;;;;;;-144.48;100.00;62369.91;4950582;28;20027;-68
2022/09/10 05:09:37;;;;;;;4.80;1.48;;;;;;;-144.48;100.00;62369.91;4951509;28;20057;-68
2022/09/10 05:12:03;;;;;;;3.38;1.60;;;;;;;-144.48;100.00;62369.91;4948394;28;20054;-66
2022/09/10 05:14:29;;;;;;;2.83;1.35;;;;;;;-144.48;100.00;62369.91;4951223;28;20629;-67
2022/09/10 05:16:55;;;;;;;9.10;1.50;;;;;;;-144.48;100.00;62369.91;4949391;28;20031;-69
2022/09/10 05:19:20;;;;;;;7.38;1.90;;;;;;;-144.48;100.00;62369.91;4950116;28;20066;-67
2022/09/10 05:21:49;;;;;;;5.45;1.50;;;;;;;-144.48;100.00;62369.91;4948494;28;20038;-67
2022/09/10 05:24:15;;;;;;;5.03;1.38;;;;;;;-144.48;100.00;62369.91;4951585;28;20027;-68
2022/09/10 05:26:41;;;;;;;4.82;1.70;;;;;;;-144.48;100.00;62369.91;4949954;28;20027;-69
2022/09/10 05:29:06;;;;;;;9.05;1.40;;;;;;;-144.48;100.00;62369.91;4949530;28;20032;-66
2022/09/10 05:31:33;;;;;;;3.95;1.48;;;;;;;-144.48;100.00;62369.91;4950854;28;20064;-66
2022/09/10 05:34:00;;;;;;;4.82;1.10;;;;;;;-144.48;100.00;62369.91;4959495;28;20031;-66
2022/09/10 05:36:26;;;;;;;8.30;1.40;;;;;;;-144.48;100.00;62369.91;4947578;28;20027;-69
2022/09/10 05:38:53;;;;;;;8.57;1.75;;;;;;;-144.48;100.00;62369.91;4952084;28;20031;-69
2022/09/10 05:41:19;;;;;;;4.68;1.17;;;;;;;-144.48;100.00;62369.91;4949930;28;20073;-69
2022/09/10 05:43:45;;;;;;;9.23;1.20;;;;;;;-144.48;100.00;62369.91;4951255;28;20059;-67
2022/09/10 05:46:10;;;;;;;11.13;1.60;;;;;;;-144.48;100.00;62369.91;4950769;28;20106;-70
2022/09/10 05:48:36;;;;;;;6.18;1.38;;;;;;;-144.48;100.00;62369.91;4951303;28;20051;-71
2022/09/10 05:51:01;;;;;;;4.75;1.10;;;;;;;-144.48;100.00;62369.91;4949848;28;20023;-67
2022/09/10 05:53:27;;;;;;;7.18;1.30;;;;;;;-144.48;100.00;62369.91;4949473;28;20392;-70
2022/09/10 05:55:52;;;;;;;5.88;1.10;;;;;;;-144.48;100.00;62369.91;4950212;28;20035;-69
2022/09/10 05:58:17;;;;;;;6.35;1.20;;;;;;;-144.48;100.00;62369.91;4948294;28;20039;-67
2022/09/10 06:00:43;;;;;;;5.07;1.20;;;;;;;-144.48;100.00;62369.91;4950357;28;20107;-71
2022/09/10 06:03:09;;;;;;;4.78;0.95;;;;;;;-144.48;100.00;62369.91;4950831;28;20111;-68
2022/09/10 06:05:34;;;;;;;8.50;1.27;;;;;;;-144.48;100.00;62369.91;4952525;28;20481;-71
2022/09/10 06:08:00;;;;;;;6.32;0.90;;;;;;;-144.48;100.00;62369.91;4954154;28;20031;-68
2022/09/10 06:10:26;;;;;;;3.35;1.55;;;;;;;-144.48;100.00;62369.91;4952413;28;20031;-69
2022/09/10 06:12:51;;;;;;;6.72;1.52;;;;;;;-144.48;100.00;62369.91;4954451;28;20085;-70
2022/09/10 06:15:18;;;;;;;4.18;1.40;;;;;;;-144.48;100.00;62369.91;4954180;28;20031;-70
2022/09/10 06:17:44;;;;;;;7.65;1.38;;;;;;;-144.48;100.00;62369.91;4953428;28;20274;-69
2022/09/10 06:20:12;;;;;;;4.53;1.20;;;;;;;-144.48;100.00;62369.91;4951636;28;20110;-69
2022/09/10 06:22:39;;;;;;;8.40;1.05;;;;;;;-144.48;100.00;62369.91;4954308;28;20024;-69
2022/09/10 06:25:05;;;;;;;3.80;1.17;;;;;;;-144.48;100.00;62369.91;4954023;28;20429;-69
2022/09/10 06:27:31;;;;;;;4.30;1.15;;;;;;;-144.48;100.00;62369.91;4953028;28;20031;-68
2022/09/10 06:29:56;;;;;;;3.83;1.65;;;;;;;-144.48;100.00;62369.91;4952562;28;20046;-70
2022/09/10 06:32:22;;;;;;;3.85;1.45;;;;;;;-144.48;100.00;62369.91;4953993;28;20030;-72
2022/09/10 06:34:47;;;;;;;8.10;1.30;;;;;;;-144.48;100.00;62369.91;4960845;28;20077;-68
2022/09/10 06:37:13;;;;;;;2.90;1.13;;;;;;;-144.48;100.00;62369.91;4953558;28;20077;-69
2022/09/10 06:39:38;;;;;;;3.63;1.15;;;;;;;-144.48;100.00;62369.91;4952751;28;20023;-69
2022/09/10 06:42:04;;;;;;;3.53;1.17;;;;;;;-144.48;100.00;62369.91;4953720;28;20058;-68
2022/09/10 06:44:29;;;;;;;4.20;1.20;;;;;;;-144.48;100.00;62369.91;4953734;28;20038;-69
2022/09/10 06:46:55;;;;;;;1.95;0.80;;;;;;;-144.48;100.00;62369.91;4952951;28;20016;-71
2022/09/10 06:49:20;;;;;;;2.53;0.95;;;;;;;-144.48;100.00;62369.91;4953348;28;20035;-68
2022/09/10 06:51:48;;;;;;;2.67;0.98;;;;;;;-144.48;100.00;62369.91;4952264;28;20034;-70
2022/09/10 06:54:13;;;;;;;7.07;1.33;;;;;;;-144.48;100.00;62369.91;4953443;28;20107;-70
2022/09/10 06:56:41;;;;;;;5.45;1.52;;;;;;;-144.48;100.00;62369.91;4949720;28;20119;-68
2022/09/10 06:59:07;;;;;;;4.97;0.90;;;;;;;-144.48;100.00;62369.91;4954457;28;20020;-70
2022/09/10 07:01:33;;;;;;;9.13;1.50;;;;;;;-144.48;100.00;62369.91;4945966;28;20385;-69
2022/09/10 07:04:00;;;;;;;2.53;0.98;;;;;;;-144.48;100.00;62369.91;4951199;28;20482;-72
2022/09/10 07:06:27;;;;;;;8.38;1.20;;;;;;;-144.48;100.00;62369.91;4952662;28;20023;-68
2022/09/10 07:08:56;;;;;;;4.40;1.00;;;;;;;-144.48;100.00;62369.91;4953774;28;20046;-71
2022/09/10 07:11:23;;;;;;;4.45;1.25;;;;;;;-144.48;100.00;62369.91;4951018;29;20626;-71
2022/09/10 07:13:51;;;;;;;4.20;1.30;;;;;;;-144.48;100.00;62369.91;4952623;28;20052;-70
2022/09/10 07:16:24;;;;;;;3.50;1.08;;;;;;;-144.48;100.00;62369.91;4950903;28;20054;-70
2022/09/10 07:18:53;;;;;;;7.45;1.13;;;;;;;-144.48;100.00;62369.91;4953001;28;20051;-71
2022/09/10 07:21:19;;;;;;;9.50;1.38;;;;;;;-144.48;100.00;62369.91;4952048;28;20066;-72
2022/09/10 07:23:48;;;;;;;2.88;1.15;;;;;;;-144.48;100.00;62369.91;4952986;28;20035;-70
2022/09/10 07:26:16;;;;;;;14.25;1.27;;;;;;;-144.48;100.00;62369.91;4952595;28;20027;-70
2022/09/10 07:28:42;;;;;;;2.35;0.80;;;;;;;-144.48;100.00;62369.91;4951277;29;20089;-70
2022/09/10 07:31:19;;;;;;;5.85;1.33;;;;;;;-144.48;100.00;62369.91;4946284;28;20023;-70
2022/09/10 07:33:46;;;;;;;5.35;1.08;;;;;;;-144.48;100.00;62369.91;4956661;28;20421;-72
2022/09/10 07:36:12;;;;;;;2.83;1.10;;;;;;;-144.48;100.00;62369.91;4951711;28;20023;-68
2022/09/10 07:38:39;;;;;;;4.57;1.25;;;;;;;-144.48;100.00;62369.91;4961994;28;20051;-69
2022/09/10 07:41:06;;;;;;;3.92;1.08;;;;;;;-144.48;100.00;62369.91;4953044;28;20027;-69
2022/09/10 07:43:33;;;;;;;3.72;1.10;;;;;;;-144.48;100.00;62369.91;4951439;28;20029;-70
2022/09/10 07:45:59;;;;;;;2.70;1.03;;;;;;;-144.48;100.00;62369.91;4956697;28;20378;-70
2022/09/10 07:48:26;;;;;;;4.00;0.95;;;;;;;-144.48;100.00;62369.91;4955898;28;20268;-69
2022/09/10 07:50:52;;;;;;;5.05;1.00;;;;;;;-144.48;100.00;62369.91;4951435;28;20114;-70
2022/09/10 07:53:18;;;;;;;2.45;1.00;;;;;;;-144.48;100.00;62369.91;4946885;28;20030;-70
2022/09/10 07:55:43;;;;;;;6.10;1.20;;;;;;;-144.48;100.00;62369.91;4951993;28;20042;-69
2022/09/10 07:58:09;;;;;;;5.13;0.93;;;;;;;-144.48;100.00;62369.91;4949502;29;20035;-71
2022/09/10 08:00:34;;;;;;;6.90;1.17;;;;;;;-144.48;100.00;62369.91;4951728;28;20028;-69
2022/09/10 08:02:59;;;;;;;4.93;1.50;;;;;;;-144.48;100.00;62369.91;4952119;28;20058;-71
2022/09/10 08:05:27;;;;;;;3.75;1.77;;;;;;;-144.48;100.00;62369.91;4951073;28;20042;-70
2022/09/10 08:07:53;;;;;;;2.95;1.15;;;;;;;-144.48;100.00;62369.91;4952093;28;20031;-69
2022/09/10 08:10:18;;;;;;;5.15;1.00;;;;;;;-144.48;100.00;62369.91;4953433;28;20050;-70
2022/09/10 08:12:44;;;;;;;1.95;0.80;;;;;;;-144.48;100.00;62369.91;4942124;29;20035;-67
2022/09/10 08:15:10;;;;;;;5.20;0.85;;;;;;;-144.48;100.00;62369.91;4952899;28;20485;-69
2022/09/10 08:17:35;;;;;;;3.42;1.20;;;;;;;-144.48;100.00;62369.91;4951857;28;20031;-71
2022/09/10 08:20:04;;;;;;;7.03;1.02;;;;;;;-144.48;100.00;62369.91;4946448;28;20507;-67
2022/09/10 08:22:30;;;;;;;5.30;1.00;;;;;;;-144.48;100.00;62369.91;4940944;29;20043;-72
2022/09/10 08:24:56;;;;;;;6.22;1.35;;;;;;;-144.48;100.00;62369.91;4955874;28;20540;-72
2022/09/10 08:27:21;;;;;;;3.95;1.10;;;;;;;-144.48;100.00;62369.91;4955443;28;20485;-72
2022/09/10 08:29:46;;;;;;;2.13;0.88;;;;;;;-144.48;100.00;62369.91;4955507;28;20098;-70
2022/09/10 08:32:12;;;;;;;4.93;1.50;;;;;;;-144.48;100.00;62369.91;4955590;28;20038;-69
2022/09/10 08:34:38;;;;;;;2.95;0.95;;;;;;;-144.48;100.00;62369.91;4954436;28;20055;-71
2022/09/10 08:37:03;;;;;;;3.72;0.85;;;;;;;-144.48;100.00;62369.91;4953124;28;20488;-69
2022/09/10 08:39:30;;;;;;;7.32;1.08;;;;;;;-144.48;100.00;62369.91;4956237;28;20027;-71
2022/09/10 08:42:04;;;;;;;6.68;1.17;;;;;;;-144.48;100.00;62369.91;4953496;28;20082;-69
2022/09/10 08:44:30;;;;;;;5.07;1.50;;;;;;;-144.48;100.00;62369.91;4962364;28;20298;-69
2022/09/10 08:47:05;;;;;;;4.57;1.20;;;;;;;-144.48;100.00;62369.91;4955507;28;20046;-69
2022/09/10 08:49:36;;;;;;;4.43;1.10;;;;;;;-144.48;100.00;62369.91;4956277;28;20106;-70
2022/09/10 08:52:45;;;;;;;4.25;1.10;;;;;;;-144.48;100.00;62369.91;4959233;28;20042;-70
2022/09/10 08:55:30;;;;;;;;;;;;;;;-144.48;100.00;62369.91;4953006;29;20035;-69
2022/09/10 08:58:19;;;;;;;4.22;0.80;;;;;;;-144.48;100.00;62369.91;4940397;29;19919;-70
2022/09/10 09:00:46;;;;;;;3.42;1.23;;;;;;;-144.48;100.00;62369.91;4953733;28;20027;-70
2022/09/10 09:03:17;;;;;;;3.63;1.13;;;;;;;-144.48;100.00;62369.91;4953492;28;20125;-70
2022/09/10 09:05:49;;;;;;;2.25;1.20;;;;;;;-144.48;100.00;62369.91;4949881;28;20610;-70
2022/09/10 09:08:24;;;;;;;4.68;1.40;;;;;;;-144.48;100.00;62369.91;4951994;28;20139;-72
2022/09/10 09:11:15;;;;;;;5.75;1.33;;;;;;;-144.48;100.00;62369.91;4950166;28;20031;-70
2022/09/10 09:13:59;;;;;;;6.40;1.27;;;;;;;-144.48;100.00;62369.91;4950073;29;20384;-70
2022/09/10 09:16:47;;;;;;;9.93;1.50;;;;;;;-144.48;100.00;62369.91;4950981;28;20019;-70
2022/09/10 09:19:16;;;;;;;5.82;1.33;;;;;;;-144.48;100.00;62369.91;4950475;28;20066;-69
2022/09/10 09:21:51;;;;;;;6.00;1.17;;;;;;;-144.48;100.00;62369.91;4950655;28;20033;-69
2022/09/10 09:24:39;;;;;;;4.32;1.13;;;;;;;-144.48;100.00;62369.91;4951238;28;20051;-71
2022/09/10 09:27:09;;;;;;;4.43;1.38;;;;;;;-144.48;100.00;62369.91;4948996;28;20031;-70
2022/09/10 09:29:58;;;;;;;3.88;1.00;;;;;;;-144.48;100.00;62369.91;4950493;28;20059;-71
2022/09/10 09:32:25;;;;;;;6.75;1.50;;;;;;;-144.48;100.00;62369.91;4950657;28;20031;-70
2022/09/10 09:34:58;;;;;;;6.65;1.58;;;;;;;-144.48;100.00;62369.91;4963047;28;20031;-71
2022/09/10 09:37:28;;;;;;;5.30;1.10;;;;;;;-144.48;100.00;62369.91;4957119;28;20027;-70
2022/09/10 09:40:14;;;;;;;2.40;1.00;;;;;;;-144.48;100.00;62369.91;4953168;28;20027;-70
2022/09/10 09:43:32;;;;;;;1.92;1.05;;;;;;;-144.48;100.00;62369.91;4955109;28;20035;-69
2022/09/10 09:45:57;;;;;;;4.30;1.00;;;;;;;-144.48;100.00;62369.91;4939810;28;20442;-70
2022/09/10 09:48:23;;;;;;;8.25;1.38;;;;;;;-144.48;100.00;62369.91;4949046;28;20023;-71
2022/09/10 09:50:55;;;;;;;4.97;1.27;;;;;;;-144.48;100.00;62369.91;4951591;28;20019;-69
2022/09/10 09:53:26;;;;;;;5.97;1.23;;;;;;;-144.48;100.00;62369.91;4955561;28;20576;-69
2022/09/10 09:55:58;;;;;;;2.58;1.00;;;;;;;-144.48;100.00;62369.91;4954649;28;20027;-70
2022/09/10 09:58:25;;;;;;;8.40;1.20;;;;;;;-144.48;100.00;62369.91;4951917;28;20046;-71
2022/09/10 10:01:04;;;;;;;6.00;1.60;;;;;;;-144.48;100.00;62369.91;4953455;28;20030;-70
2022/09/10 10:04:00;;;;;;;3.03;1.02;;;;;;;-144.48;100.00;62369.91;4953736;28;20505;-69
2022/09/10 10:06:43;;;;;;;3.38;1.10;;;;;;;-144.48;100.00;62369.91;4951211;28;20134;-69
2022/09/10 10:09:20;;;;;;;4.25;1.10;;;;;;;-144.48;100.00;62369.91;4950412;28;20027;-71
2022/09/10 10:11:53;;;;;;;8.00;1.30;;;;;;;-144.48;100.00;62369.91;4965868;23;20050;-71
2022/09/10 10:14:19;;;;;;;4.32;2.03;;;;;;;-144.48;100.00;62369.91;4954226;28;20504;-70
2022/09/10 10:16:47;;;;;;;4.53;1.20;;;;;;;-144.48;100.00;62369.91;4952985;28;20544;-68
2022/09/10 10:19:33;;;;;;;3.63;1.00;;;;;;;-144.48;100.00;62369.91;4953944;28;20142;-71
2022/09/10 10:22:13;;;;;;;4.55;1.15;;;;;;;-144.48;100.00;62369.91;4948855;29;20110;-69
2022/09/10 10:24:41;;;;;;;5.80;1.00;;;;;;;-144.48;100.00;62369.91;4953543;28;20027;-68
2022/09/10 10:27:25;;;;;;;7.73;1.53;;;;;;;-144.48;100.00;62369.91;4953134;28;20031;-71
2022/09/10 10:30:15;;;;;;;11.18;1.45;;;;;;;-144.48;100.00;62369.91;4952673;28;20039;-71
2022/09/10 10:32:48;;;;;;;3.00;1.23;;;;;;;-144.48;100.00;62369.91;4947331;29;20130;-70
2022/09/10 10:35:25;;;;;;;4.90;1.20;;;;;;;-144.48;100.00;62369.91;4948637;29;20023;-70
2022/09/10 10:38:24;;;;;;;4.78;1.20;;;;;;;-144.48;100.00;62369.91;4953228;28;20539;-70
2022/09/10 10:41:06;;;;;;;5.90;1.20;;;;;;;-144.48;100.00;62369.91;4948339;28;20106;-71
2022/09/10 10:43:32;;;;;;;5.43;1.40;;;;;;;-144.48;100.00;62369.91;4953369;28;20040;-69
2022/09/10 10:46:10;;;;;;;7.00;1.27;;;;;;;-144.48;100.00;62369.91;4953348;28;20082;-69
2022/09/10 10:49:14;;;;;;;2.83;0.98;;;;;;;-144.48;100.00;62369.91;4946200;28;20020;-71
2022/09/10 10:52:04;;;;;;;5.00;1.35;;;;;;;-144.48;100.00;62369.91;4950405;28;20039;-71
2022/09/10 10:54:47;;;;;;;7.97;1.17;;;;;;;-144.48;100.00;62369.91;4956831;28;20085;-70
2022/09/10 10:57:31;;;;;;;4.25;1.60;;;;;;;-144.48;100.00;62369.91;4948107;28;20023;-70
2022/09/10 11:00:08;;;;;;;3.03;1.13;;;;;;;-144.48;100.00;62369.91;4952172;28;20172;-68
2022/09/10 11:02:49;;;;;;;7.18;1.15;;;;;;;-144.48;100.00;62369.91;4948489;29;20489;-72
2022/09/10 11:05:33;;;;;;;3.42;0.90;;;;;;;-144.48;100.00;62369.91;4951671;28;20038;-71
2022/09/10 11:08:05;;;;;;;7.55;1.15;;;;;;;-144.48;100.00;62369.91;4951528;28;20019;-71
2022/09/10 11:10:38;;;;;;;3.17;1.00;;;;;;;-144.48;100.00;62369.91;4952710;28;20031;-71
2022/09/10 11:13:08;;;;;;;3.13;1.25;;;;;;;-144.48;100.00;62369.91;4953280;28;20118;-69
2022/09/10 11:15:52;;;;;;;7.97;1.45;;;;;;;-144.48;100.00;62369.91;4949295;28;20055;-68
2022/09/10 11:18:26;;;;;;;4.15;1.13;;;;;;;-144.48;100.00;62369.91;4952958;28;20024;-70
2022/09/10 11:21:13;;;;;;;5.00;1.63;;;;;;;-144.48;100.00;62369.91;4951634;28;20081;-69
2022/09/10 11:23:44;;;;;;;6.10;1.20;;;;;;;-144.48;100.00;62369.91;4948839;28;20029;-73